Time;durP1;ratioP1;P1;durP2;ratioP2;P2;SDS_P1;SDS_P2;PMS_P1;PMS_P2;Temp;Humidity;BMP_temperature;BMP_pressure;BME280_temperature;BME280_humidity;BME280_pressure;Samples;Min_cycle;Max_cycle;Signal;HPM_P1;HPM_P2
2022/08/31 00:05:08;;;;;;;3.25;2.85;;;22.50;99.90;;;;;;5018001;28;20196;-72
2022/08/31 00:07:35;;;;;;;3.92;2.97;;;22.50;99.90;;;;;;5011814;28;20204;-72
2022/08/31 00:10:12;;;;;;;4.15;2.75;;;22.50;99.90;;;;;;5020377;28;20233;-72
2022/08/31 00:12:41;;;;;;;3.70;2.70;;;22.40;99.90;;;;;;5021553;28;20215;-72
2022/08/31 00:15:11;;;;;;;4.35;3.30;;;22.40;99.90;;;;;;5021502;28;20202;-73
2022/08/31 00:17:38;;;;;;;7.43;3.20;;;22.40;99.90;;;;;;5022093;28;20210;-73
2022/08/31 00:20:06;;;;;;;5.05;3.38;;;22.40;99.90;;;;;;5021367;28;20211;-71
2022/08/31 00:22:52;;;;;;;4.55;3.00;;;22.50;99.90;;;;;;5021732;28;20306;-73
2022/08/31 00:25:22;;;;;;;4.57;2.92;;;22.40;99.90;;;;;;5026334;28;20198;-72
2022/08/31 00:27:49;;;;;;;7.15;3.30;;;22.40;99.90;;;;;;5021717;28;20204;-72
2022/08/31 00:30:16;;;;;;;3.75;3.03;;;22.40;99.90;;;;;;5016924;28;20892;-72
2022/08/31 00:32:43;;;;;;;3.50;2.83;;;22.40;99.90;;;;;;5010395;28;20723;-71
2022/08/31 00:35:09;;;;;;;4.70;2.85;;;22.40;99.90;;;;;;5013203;28;20664;-72
2022/08/31 00:37:36;;;;;;;5.53;3.40;;;22.40;99.90;;;;;;5015583;28;20404;-72
2022/08/31 00:40:04;;;;;;;4.53;3.17;;;22.40;99.90;;;;;;5013035;28;20195;-72
2022/08/31 00:42:32;;;;;;;5.25;3.10;;;22.30;99.90;;;;;;5015892;28;20451;-72
2022/08/31 00:44:58;;;;;;;4.80;2.92;;;22.30;99.90;;;;;;5021180;28;20581;-71
2022/08/31 00:47:25;;;;;;;5.15;3.30;;;22.40;99.90;;;;;;5020266;28;20208;-73
2022/08/31 00:49:52;;;;;;;4.82;3.00;;;22.40;99.90;;;;;;5016135;28;20227;-72
2022/08/31 00:52:23;;;;;;;4.10;3.30;;;22.40;99.90;;;;;;5020250;28;20219;-72
2022/08/31 00:55:01;;;;;;;6.57;3.20;;;22.40;99.90;;;;;;5017200;28;20195;-72
2022/08/31 00:57:32;;;;;;;3.95;2.92;;;22.40;99.90;;;;;;5020082;28;20203;-73
2022/08/31 01:00:03;;;;;;;3.63;2.88;;;22.40;99.90;;;;;;5018275;28;20196;-73
2022/08/31 01:02:30;;;;;;;4.07;3.00;;;22.40;99.90;;;;;;5024231;28;20231;-72
2022/08/31 01:04:57;;;;;;;4.95;3.17;;;22.40;99.90;;;;;;5023657;28;20201;-72
2022/08/31 01:07:24;;;;;;;6.75;3.05;;;22.30;99.90;;;;;;5020973;28;20441;-72
2022/08/31 01:09:52;;;;;;;3.83;2.70;;;22.30;99.90;;;;;;5024461;28;20691;-71
2022/08/31 01:12:22;;;;;;;3.75;2.85;;;22.30;99.90;;;;;;5027748;28;20211;-71
2022/08/31 01:14:49;;;;;;;4.13;3.00;;;22.30;99.90;;;;;;5021841;28;20204;-71
2022/08/31 01:17:16;;;;;;;4.63;3.00;;;22.20;99.90;;;;;;5021659;28;20657;-71
2022/08/31 01:20:12;;;;;;;5.60;3.20;;;22.20;99.90;;;;;;5012427;28;20212;-71
2022/08/31 01:23:12;;;;;;;6.80;3.20;;;22.30;99.90;;;;;;5012566;28;20223;-71
2022/08/31 01:25:43;;;;;;;7.95;3.17;;;22.20;99.90;;;;;;5016407;28;20208;-71
2022/08/31 01:28:10;;;;;;;5.18;3.10;;;22.20;99.90;;;;;;5022242;28;20581;-72
2022/08/31 01:30:37;;;;;;;5.03;3.00;;;22.10;99.90;;;;;;5016116;28;20246;-71
2022/08/31 01:33:05;;;;;;;3.67;3.10;;;22.10;99.90;;;;;;5025893;28;20218;-72
2022/08/31 01:35:33;;;;;;;3.65;3.00;;;22.20;99.90;;;;;;5019870;28;20195;-71
2022/08/31 01:38:01;;;;;;;4.25;2.83;;;22.20;99.90;;;;;;5024049;28;20200;-73
2022/08/31 01:40:47;;;;;;;6.53;3.13;;;22.20;99.90;;;;;;5015122;28;20303;-72
2022/08/31 01:43:14;;;;;;;7.88;2.90;;;22.10;99.90;;;;;;5018125;28;20762;-72
2022/08/31 01:45:40;;;;;;;8.10;3.40;;;22.00;99.90;;;;;;5020901;28;20222;-72
2022/08/31 01:48:07;;;;;;;4.07;2.83;;;22.00;99.90;;;;;;5023803;28;20196;-72
2022/08/31 01:50:34;;;;;;;4.78;3.08;;;22.10;99.90;;;;;;5023153;28;20637;-72
2022/08/31 01:53:01;;;;;;;4.55;2.70;;;22.10;99.90;;;;;;5026563;28;20223;-72
2022/08/31 01:55:27;;;;;;;4.63;3.20;;;22.10;99.90;;;;;;5026053;28;20200;-71
2022/08/31 01:57:59;;;;;;;4.35;3.13;;;22.00;99.90;;;;;;5021092;28;20195;-72
2022/08/31 02:00:27;;;;;;;5.50;3.05;;;22.00;99.90;;;;;;5023032;28;20207;-72
2022/08/31 02:02:58;;;;;;;6.18;3.10;;;21.90;99.90;;;;;;5019624;28;20235;-72
2022/08/31 02:05:25;;;;;;;5.55;3.22;;;21.80;99.90;;;;;;5020558;28;20203;-72
2022/08/31 02:07:51;;;;;;;4.47;2.90;;;21.80;99.90;;;;;;5019269;28;20295;-73
2022/08/31 02:10:18;;;;;;;4.63;3.00;;;21.80;99.90;;;;;;5020200;28;20223;-72
2022/08/31 02:12:45;;;;;;;4.13;2.92;;;21.80;99.90;;;;;;5022393;28;20219;-71
2022/08/31 02:15:12;;;;;;;5.00;2.80;;;21.90;99.90;;;;;;5022168;28;20199;-72
2022/08/31 02:17:38;;;;;;;3.75;2.92;;;21.90;99.90;;;;;;5020472;28;20206;-72
2022/08/31 02:20:08;;;;;;;6.18;3.03;;;21.90;99.90;;;;;;5022008;28;20204;-71
2022/08/31 02:22:34;;;;;;;4.18;3.03;;;21.80;99.90;;;;;;5023694;28;20224;-72
2022/08/31 02:25:02;;;;;;;5.82;3.25;;;21.70;99.90;;;;;;5020344;28;20196;-71
2022/08/31 02:27:28;;;;;;;3.55;3.05;;;21.70;99.90;;;;;;5024941;28;20199;-72
2022/08/31 02:29:55;;;;;;;4.07;2.95;;;21.80;99.90;;;;;;5019346;28;20223;-72
2022/08/31 02:32:22;;;;;;;4.45;3.20;;;21.80;99.90;;;;;;5023597;28;20212;-73
2022/08/31 02:34:49;;;;;;;5.35;3.28;;;21.80;99.90;;;;;;5018809;28;20203;-72
2022/08/31 02:37:16;;;;;;;4.30;3.30;;;21.80;99.90;;;;;;5021013;28;20571;-72
2022/08/31 02:39:45;;;;;;;4.97;3.35;;;21.80;99.90;;;;;;5024239;28;20607;-72
2022/08/31 02:42:14;;;;;;;5.13;3.40;;;21.80;99.90;;;;;;5023138;28;20215;-72
2022/08/31 02:44:44;;;;;;;3.22;2.83;;;21.80;99.90;;;;;;5018003;28;20203;-72
2022/08/31 02:47:10;;;;;;;4.10;2.88;;;21.70;99.90;;;;;;5023005;28;20196;-72
2022/08/31 02:49:37;;;;;;;4.15;3.13;;;21.90;99.90;;;;;;5025903;28;20230;-72
2022/08/31 02:52:04;;;;;;;6.95;3.30;;;21.80;99.90;;;;;;5021118;28;20216;-73
2022/08/31 02:54:31;;;;;;;6.28;3.30;;;21.80;99.90;;;;;;5023247;28;20199;-73
2022/08/31 02:56:57;;;;;;;4.13;2.88;;;21.80;99.90;;;;;;5020373;28;20196;-72
2022/08/31 02:59:24;;;;;;;6.15;3.22;;;21.90;99.90;;;;;;5024988;28;20202;-73
2022/08/31 03:01:54;;;;;;;4.28;2.88;;;21.80;99.90;;;;;;5024180;28;20233;-72
2022/08/31 03:04:21;;;;;;;5.05;3.30;;;21.80;99.90;;;;;;5016889;28;20683;-72
2022/08/31 03:06:48;;;;;;;4.22;3.35;;;21.70;99.90;;;;;;5021485;28;20196;-71
2022/08/31 03:09:15;;;;;;;6.10;3.95;;;21.70;99.90;;;;;;5023794;28;21559;-70
2022/08/31 03:11:42;;;;;;;4.55;3.17;;;21.70;99.90;;;;;;5022688;28;20227;-70
2022/08/31 03:14:08;;;;;;;4.05;2.97;;;21.70;99.90;;;;;;5024156;28;20187;-71
2022/08/31 03:16:38;;;;;;;7.00;3.28;;;21.60;99.90;;;;;;5015142;28;20283;-71
2022/08/31 03:19:06;;;;;;;5.03;3.10;;;21.60;99.90;;;;;;5014395;28;20208;-70
2022/08/31 03:21:32;;;;;;;4.82;2.80;;;21.60;99.90;;;;;;5023319;28;20224;-71
2022/08/31 03:23:59;;;;;;;4.20;3.15;;;21.50;99.90;;;;;;5016703;28;20197;-70
2022/08/31 03:26:26;;;;;;;6.20;3.60;;;21.60;99.90;;;;;;5017350;28;20195;-70
2022/08/31 03:28:54;;;;;;;4.75;3.17;;;21.70;99.90;;;;;;5025051;28;20207;-71
2022/08/31 03:31:23;;;;;;;5.77;3.50;;;21.50;99.90;;;;;;5018756;28;20215;-70
2022/08/31 03:33:50;;;;;;;6.28;3.05;;;21.40;99.90;;;;;;5025815;28;20195;-72
2022/08/31 03:36:16;;;;;;;6.93;3.50;;;21.20;99.90;;;;;;5022109;28;20203;-72
2022/08/31 03:38:43;;;;;;;7.27;3.53;;;21.20;99.90;;;;;;5020487;28;20207;-72
2022/08/31 03:41:14;;;;;;;4.27;3.37;;;21.00;99.90;;;;;;5014606;28;20196;-72
2022/08/31 03:43:41;;;;;;;4.47;3.50;;;20.90;99.90;;;;;;5020190;28;20203;-72
2022/08/31 03:46:08;;;;;;;5.50;3.67;;;20.80;99.90;;;;;;5016750;28;20580;-72
2022/08/31 03:48:38;;;;;;;6.33;3.60;;;20.70;99.90;;;;;;5023568;28;20202;-72
2022/08/31 03:51:05;;;;;;;5.20;3.30;;;20.70;99.90;;;;;;5016052;28;20655;-70
2022/08/31 03:53:34;;;;;;;5.80;3.33;;;20.60;99.90;;;;;;5022516;28;20196;-70
2022/08/31 03:56:02;;;;;;;5.63;3.70;;;20.50;99.90;;;;;;5010719;28;20691;-70
2022/08/31 03:58:30;;;;;;;4.50;3.33;;;20.50;99.90;;;;;;5019205;28;20198;-70
2022/08/31 04:00:57;;;;;;;6.73;3.47;;;20.50;99.90;;;;;;5014992;28;20207;-70
2022/08/31 04:03:24;;;;;;;4.60;3.47;;;20.50;99.90;;;;;;5019851;28;20223;-70
2022/08/31 04:05:50;;;;;;;5.57;3.30;;;20.50;99.90;;;;;;5021230;28;20199;-71
2022/08/31 04:08:18;;;;;;;4.50;3.40;;;20.50;99.90;;;;;;5017601;28;20742;-70
2022/08/31 04:10:48;;;;;;;5.90;3.80;;;20.50;99.90;;;;;;5009131;28;20223;-70
2022/08/31 04:13:15;;;;;;;7.30;3.60;;;20.50;99.90;;;;;;5014016;28;20212;-71
2022/08/31 04:15:42;;;;;;;5.23;3.50;;;20.40;99.90;;;;;;5014941;28;20207;-70
2022/08/31 04:18:09;;;;;;;4.60;3.57;;;20.50;99.90;;;;;;5018419;28;20196;-70
2022/08/31 04:20:37;;;;;;;9.17;3.97;;;20.50;99.90;;;;;;5021692;28;20203;-70
2022/08/31 04:23:04;;;;;;;4.87;3.90;;;20.50;99.90;;;;;;5016608;28;20223;-70
2022/08/31 04:25:31;;;;;;;8.00;3.80;;;20.50;99.90;;;;;;5016423;28;20234;-71
2022/08/31 04:27:58;;;;;;;6.17;3.67;;;20.40;99.90;;;;;;5014779;28;20703;-71
2022/08/31 04:30:24;;;;;;;4.60;3.87;;;20.50;99.90;;;;;;5021184;28;20219;-70
2022/08/31 04:32:52;;;;;;;7.40;3.67;;;20.40;99.90;;;;;;5021234;28;20222;-71
2022/08/31 04:35:19;;;;;;;5.97;3.67;;;20.50;99.90;;;;;;5017658;28;20195;-71
2022/08/31 04:37:46;;;;;;;5.83;3.67;;;20.40;99.90;;;;;;5012694;28;20196;-72
2022/08/31 04:40:19;;;;;;;7.57;3.90;;;20.40;99.90;;;;;;5015612;28;20195;-72
2022/08/31 04:42:51;;;;;;;4.83;3.80;;;20.40;99.90;;;;;;5017407;28;20241;-72
2022/08/31 04:45:18;;;;;;;5.37;3.60;;;20.50;99.90;;;;;;5016431;28;20368;-72
2022/08/31 04:47:44;;;;;;;3.63;3.30;;;20.50;99.90;;;;;;5015209;28;20204;-70
2022/08/31 04:50:12;;;;;;;4.90;4.17;;;20.50;99.90;;;;;;5018201;28;20231;-70
2022/08/31 04:52:41;;;;;;;8.03;4.17;;;20.40;99.90;;;;;;5019050;28;20582;-70
2022/08/31 04:55:10;;;;;;;13.57;4.80;;;20.40;99.90;;;;;;5015301;28;20196;-70
2022/08/31 04:57:39;;;;;;;4.60;4.10;;;20.30;99.90;;;;;;5024107;28;20195;-70
2022/08/31 05:00:08;;;;;;;5.97;4.43;;;20.20;99.90;;;;;;5015541;28;20196;-70
2022/08/31 05:02:37;;;;;;;6.33;3.80;;;20.20;99.90;;;;;;5033826;28;20238;-70
2022/08/31 05:05:04;;;;;;;5.33;4.20;;;20.10;99.90;;;;;;5017191;28;20205;-70
2022/08/31 05:07:31;;;;;;;6.30;4.30;;;20.00;99.90;;;;;;5017885;28;20195;-70
2022/08/31 05:09:58;;;;;;;7.93;4.40;;;20.10;99.90;;;;;;5022058;28;20199;-71
2022/08/31 05:12:24;;;;;;;5.60;4.50;;;20.10;99.90;;;;;;5018903;28;20219;-71
2022/08/31 05:14:51;;;;;;;6.30;5.00;;;20.20;99.90;;;;;;5020800;28;20195;-67
2022/08/31 05:17:18;;;;;;;7.20;4.23;;;20.10;99.90;;;;;;5017331;28;20215;-68
2022/08/31 05:19:44;;;;;;;7.37;4.57;;;20.20;99.90;;;;;;5018171;28;20204;-68
2022/08/31 05:22:11;;;;;;;5.97;4.60;;;20.10;99.90;;;;;;5020498;28;20234;-68
2022/08/31 05:24:38;;;;;;;5.97;4.27;;;20.00;99.90;;;;;;5026503;28;20211;-67
2022/08/31 05:27:05;;;;;;;6.67;4.27;;;20.10;99.90;;;;;;5022920;28;20227;-67
2022/08/31 05:29:32;;;;;;;4.90;4.07;;;20.10;99.90;;;;;;5011785;28;20215;-68
2022/08/31 05:31:59;;;;;;;5.40;4.53;;;20.00;99.90;;;;;;5017225;28;20723;-67
2022/08/31 05:34:25;;;;;;;6.03;4.20;;;19.90;99.90;;;;;;5017297;28;20196;-71
2022/08/31 05:36:55;;;;;;;6.70;4.57;;;19.80;99.90;;;;;;5015711;28;20199;-70
2022/08/31 05:39:23;;;;;;;5.87;4.90;;;19.70;99.90;;;;;;5019152;28;20204;-71
2022/08/31 05:41:50;;;;;;;7.93;4.93;;;19.50;99.90;;;;;;5019699;28;20277;-71
2022/08/31 05:44:19;;;;;;;9.00;5.53;;;19.20;99.90;;;;;;5021240;28;20409;-71
2022/08/31 05:46:47;;;;;;;8.43;5.60;;;19.00;99.90;;;;;;5018929;28;20664;-72
2022/08/31 05:49:23;;;;;;;6.00;5.03;;;18.80;99.90;;;;;;5022303;28;20322;-72
2022/08/31 05:51:55;;;;;;;8.87;5.57;;;18.60;99.90;;;;;;5014613;28;20695;-72
2022/08/31 05:54:22;;;;;;;8.47;6.30;;;18.40;99.90;;;;;;5017257;28;20200;-72
2022/08/31 05:56:48;;;;;;;7.57;5.20;;;18.30;99.90;;;;;;5015635;28;20195;-72
2022/08/31 05:59:15;;;;;;;9.03;5.87;;;18.30;99.90;;;;;;5020389;28;20192;-71
2022/08/31 06:01:42;;;;;;;7.60;5.77;;;18.10;99.90;;;;;;5011663;28;20238;-70
2022/08/31 06:04:09;;;;;;;9.50;6.10;;;18.00;99.90;;;;;;5022460;28;20199;-72
2022/08/31 06:06:36;;;;;;;7.33;6.20;;;18.00;99.90;;;;;;5026967;28;20202;-72
2022/08/31 06:09:05;;;;;;;7.97;6.10;;;18.00;99.90;;;;;;5022701;28;20598;-72
2022/08/31 06:11:33;;;;;;;10.13;6.57;;;17.90;99.90;;;;;;5025238;28;20251;-71
2022/08/31 06:14:02;;;;;;;13.07;7.87;;;17.70;99.90;;;;;;5027778;28;20196;-73
2022/08/31 06:16:29;;;;;;;9.53;6.97;;;17.70;99.90;;;;;;5022518;28;20195;-71
2022/08/31 06:18:57;;;;;;;8.97;7.10;;;17.60;99.90;;;;;;5021389;28;20238;-71
2022/08/31 06:21:32;;;;;;;13.10;7.67;;;17.50;99.90;;;;;;5023943;28;20196;-71
2022/08/31 06:24:00;;;;;;;8.63;7.03;;;17.50;99.90;;;;;;5020750;28;20207;-71
2022/08/31 06:26:29;;;;;;;10.43;6.83;;;17.50;99.90;;;;;;5025668;28;20675;-72
2022/08/31 06:28:59;;;;;;;8.73;7.33;;;17.60;99.90;;;;;;5027572;28;20203;-72
2022/08/31 06:31:32;;;;;;;10.40;8.37;;;17.70;99.90;;;;;;5021981;28;20228;-70
2022/08/31 06:34:00;;;;;;;11.07;7.23;;;17.70;99.90;;;;;;5019797;28;20200;-71
2022/08/31 06:36:29;;;;;;;11.00;8.63;;;17.70;99.90;;;;;;5024213;28;20196;-72
2022/08/31 06:38:58;;;;;;;11.73;8.20;;;17.80;99.90;;;;;;5040545;28;20200;-71
2022/08/31 06:41:30;;;;;;;9.20;7.07;;;17.80;99.90;;;;;;5019463;28;20221;-72
2022/08/31 06:44:04;;;;;;;9.37;7.50;;;17.90;99.90;;;;;;5017529;28;20204;-70
2022/08/31 06:46:32;;;;;;;8.50;6.37;;;18.10;99.90;;;;;;5025781;28;20222;-71
2022/08/31 06:48:59;;;;;;;10.23;6.90;;;18.20;99.90;;;;;;5024216;28;20196;-72
2022/08/31 06:51:26;;;;;;;8.47;6.20;;;18.20;99.90;;;;;;5024602;28;20619;-70
2022/08/31 06:53:54;;;;;;;9.40;7.10;;;18.10;99.90;;;;;;5022202;28;20253;-74
2022/08/31 06:56:27;;;;;;;8.27;6.70;;;18.10;99.90;;;;;;5020283;28;20192;-71
2022/08/31 06:58:53;;;;;;;9.60;7.17;;;18.10;99.90;;;;;;5015092;28;20489;-72
2022/08/31 07:01:27;;;;;;;11.17;7.73;;;18.00;99.90;;;;;;5014614;28;20204;-72
2022/08/31 07:04:04;;;;;;;10.67;7.40;;;17.90;99.90;;;;;;5021466;28;20859;-71
2022/08/31 07:06:35;;;;;;;13.30;7.47;;;17.80;99.90;;;;;;5020403;28;20204;-72
2022/08/31 07:09:04;;;;;;;11.43;8.17;;;17.80;99.90;;;;;;5015884;28;20715;-71
2022/08/31 07:11:35;;;;;;;12.03;8.13;;;17.80;99.90;;;;;;5017901;28;20219;-71
2022/08/31 07:14:11;;;;;;;10.90;8.67;;;17.80;99.90;;;;;;5013752;28;20200;-72
2022/08/31 07:16:38;;;;;;;11.70;8.57;;;17.90;99.90;;;;;;5015181;28;20690;-72
2022/08/31 07:19:06;;;;;;;11.20;8.23;;;17.80;99.90;;;;;;5017774;28;20187;-74
2022/08/31 07:21:38;;;;;;;13.17;8.37;;;17.80;99.90;;;;;;5014858;28;20644;-73
2022/08/31 07:24:05;;;;;;;12.77;8.33;;;17.60;99.90;;;;;;5010550;28;20683;-73
2022/08/31 07:26:35;;;;;;;11.93;8.50;;;17.70;99.90;;;;;;5015460;28;20203;-72
2022/08/31 07:29:05;;;;;;;12.23;8.70;;;17.80;99.90;;;;;;5014914;28;20231;-73
2022/08/31 07:31:43;;;;;;;12.93;8.37;;;17.80;99.90;;;;;;5019122;28;20314;-71
2022/08/31 07:34:11;;;;;;;13.47;9.40;;;17.80;99.90;;;;;;5017327;28;20192;-74
2022/08/31 07:42:16;;;;;;;11.90;8.73;;;17.60;99.90;;;;;;5011981;28;20219;-74
2022/08/31 07:44:50;;;;;;;13.07;9.67;;;17.60;99.90;;;;;;5022493;28;20672;-72
2022/08/31 07:47:20;;;;;;;12.60;9.60;;;17.70;99.90;;;;;;5016999;28;20238;-72
2022/08/31 07:49:53;;;;;;;13.13;9.40;;;17.80;99.90;;;;;;5013805;28;20212;-72
2022/08/31 07:52:26;;;;;;;12.93;9.10;;;17.80;99.90;;;;;;5006591;28;20223;-70
2022/08/31 07:54:56;;;;;;;14.00;9.00;;;17.70;99.90;;;;;;5017468;28;20574;-70
2022/08/31 07:57:28;;;;;;;12.53;8.90;;;17.80;99.90;;;;;;5017380;28;20222;-70
2022/08/31 08:00:06;;;;;;;11.60;8.27;;;17.80;99.90;;;;;;5010715;28;21601;-69
2022/08/31 08:02:37;;;;;;;13.23;8.23;;;17.80;99.90;;;;;;5017151;28;20247;-70
2022/08/31 08:05:06;;;;;;;11.30;7.90;;;17.80;99.90;;;;;;5015946;28;20207;-70
2022/08/31 08:07:35;;;;;;;13.47;9.20;;;17.70;99.90;;;;;;5012935;28;20192;-70
2022/08/31 08:10:08;;;;;;;13.00;8.97;;;17.80;99.90;;;;;;5018352;28;20665;-69
2022/08/31 08:12:35;;;;;;;15.50;9.03;;;17.90;99.90;;;;;;5014882;28;20731;-70
2022/08/31 08:15:05;;;;;;;13.80;9.37;;;17.90;99.90;;;;;;5010783;28;20203;-69
2022/08/31 08:17:32;;;;;;;13.60;9.90;;;18.00;99.90;;;;;;5016693;28;20207;-70
2022/08/31 08:19:59;;;;;;;12.37;9.57;;;18.00;99.90;;;;;;5018546;28;20192;-69
2022/08/31 08:22:26;;;;;;;13.63;9.60;;;18.00;99.90;;;;;;5017211;28;20641;-69
2022/08/31 08:25:13;;;;;;;13.20;8.97;;;18.00;99.90;;;;;;5016913;28;20199;-70
2022/08/31 08:27:42;;;;;;;11.90;9.67;;;18.00;99.90;;;;;;5013300;28;20199;-70
2022/08/31 08:30:12;;;;;;;13.20;10.10;;;18.20;99.90;;;;;;5013897;28;20294;-70
2022/08/31 08:32:41;;;;;;;14.37;9.87;;;18.20;99.90;;;;;;5018708;28;20223;-70
2022/08/31 08:35:09;;;;;;;15.03;10.23;;;18.00;99.90;;;;;;5014300;28;20200;-70
2022/08/31 08:37:41;;;;;;;12.87;9.33;;;18.00;99.90;;;;;;5018399;28;20207;-72
2022/08/31 08:40:40;;;;;;;13.93;9.97;;;18.00;99.90;;;;;;5016556;28;20200;-72
2022/08/31 08:43:14;;;;;;;15.33;11.23;;;18.00;99.90;;;;;;5017274;28;20343;-73
2022/08/31 08:45:47;;;;;;;14.20;11.03;;;18.10;99.90;;;;;;5016406;28;20201;-74
2022/08/31 08:48:16;;;;;;;17.63;10.10;;;18.10;99.90;;;;;;5013606;28;20204;-74
2022/08/31 08:50:43;;;;;;;12.30;9.30;;;18.10;99.90;;;;;;5017120;28;20571;-72
2022/08/31 08:53:12;;;;;;;11.57;8.77;;;18.10;99.90;;;;;;5016124;28;20238;-73
2022/08/31 08:55:40;;;;;;;14.87;9.03;;;18.20;99.90;;;;;;5014246;28;20203;-73
2022/08/31 08:58:12;;;;;;;12.00;9.17;;;18.20;99.90;;;;;;5011151;28;20208;-72
2022/08/31 09:00:45;;;;;;;12.73;9.00;;;18.30;99.90;;;;;;5018484;28;20667;-72
2022/08/31 09:03:21;;;;;;;11.80;9.00;;;18.20;99.90;;;;;;5012259;28;20224;-74
2022/08/31 09:06:00;;;;;;;14.50;8.83;;;18.30;99.90;;;;;;5008453;28;20652;-73
2022/08/31 09:08:55;;;;;;;10.43;8.50;;;18.30;99.90;;;;;;5013486;28;20201;-76
2022/08/31 09:11:31;;;;;;;13.90;9.00;;;18.40;99.90;;;;;;5014488;28;20620;-71
2022/08/31 09:14:27;;;;;;;11.40;9.17;;;18.50;99.90;;;;;;5015759;28;20204;-71
2022/08/31 09:17:15;;;;;;;11.30;9.43;;;18.70;99.90;;;;;;5014806;28;20195;-72
2022/08/31 09:20:00;;;;;;;12.90;9.67;;;18.80;99.90;;;;;;5020248;28;20673;-72
2022/08/31 09:22:29;;;;;;;12.90;9.40;;;18.80;99.90;;;;;;5018988;28;20215;-72
2022/08/31 09:24:58;;;;;;;13.17;9.57;;;18.90;99.90;;;;;;5012596;28;20581;-70
2022/08/31 09:27:37;;;;;;;14.30;8.27;;;19.10;99.90;;;;;;5015191;28;20195;-71
2022/08/31 09:30:05;;;;;;;11.93;8.30;;;19.20;99.90;;;;;;5020128;28;20794;-71
2022/08/31 09:32:35;;;;;;;10.00;7.87;;;19.40;99.90;;;;;;5024554;28;20223;-70
2022/08/31 09:35:22;;;;;;;8.30;6.80;;;19.50;99.90;;;;;;5008022;28;21453;-70
2022/08/31 09:38:02;;;;;;;9.73;6.93;;;19.60;99.90;;;;;;5025233;28;20196;-70
2022/08/31 09:40:46;;;;;;;8.13;7.00;;;19.70;99.90;;;;;;5024787;28;20478;-70
2022/08/31 09:43:38;;;;;;;9.67;7.00;;;19.90;99.90;;;;;;5022934;28;20618;-70
2022/08/31 09:46:08;;;;;;;9.97;7.10;;;20.10;99.90;;;;;;5021135;28;20200;-70
2022/08/31 09:48:50;;;;;;;10.90;7.40;;;20.20;99.90;;;;;;5015026;28;20231;-70
2022/08/31 09:51:29;;;;;;;10.55;7.10;;;20.50;99.90;;;;;;5018638;28;20196;-70
2022/08/31 09:57:01;;;;;;;9.23;7.10;;;21.20;99.90;;;;;;5014054;28;20673;-72
2022/08/31 09:59:36;;;;;;;11.30;7.55;;;21.30;99.90;;;;;;5016536;28;20200;-72
2022/08/31 10:02:30;;;;;;;11.20;7.35;;;21.80;99.90;;;;;;5021081;28;20230;-72
2022/08/31 10:05:02;;;;;;;9.85;7.07;;;22.30;99.90;;;;;;5028637;28;20587;-71
2022/08/31 10:07:36;;;;;;;9.50;7.22;;;22.60;99.90;;;;;;5025473;28;20635;-73
2022/08/31 10:10:11;;;;;;;13.07;7.55;;;22.80;99.90;;;;;;5019331;28;20227;-71
2022/08/31 10:13:03;;;;;;;11.10;7.47;;;22.90;99.90;;;;;;5016654;28;20226;-72
2022/08/31 10:15:41;;;;;;;8.35;6.85;;;23.40;99.90;;;;;;5026803;28;20203;-72
2022/08/31 10:18:31;;;;;;;11.02;7.20;;;23.50;99.90;;;;;;5019213;28;20287;-73
2022/08/31 10:21:09;;;;;;;11.43;7.53;;;23.60;99.90;;;;;;5016585;28;20287;-75
2022/08/31 10:23:41;;;;;;;9.40;6.75;;;23.20;99.90;;;;;;5023386;28;20207;-70
2022/08/31 10:26:18;;;;;;;11.25;7.72;;;23.30;99.90;;;;;;5020331;28;20597;-69
2022/08/31 10:28:54;;;;;;;13.43;8.23;;;23.30;99.90;;;;;;5017438;28;20203;-69
2022/08/31 10:31:37;;;;;;;10.85;8.32;;;23.20;99.90;;;;;;5020022;28;20206;-75
2022/08/31 10:37:02;;;;;;;14.18;8.48;;;23.00;99.90;;;;;;5014694;28;20219;-73
2022/08/31 10:39:57;;;;;;;10.95;8.07;;;22.90;99.90;;;;;;5014450;28;20195;-71
2022/08/31 10:42:28;;;;;;;10.43;7.28;;;22.90;99.90;;;;;;5013628;28;20215;-74
2022/08/31 10:45:08;;;;;;;13.88;8.35;;;22.70;99.90;;;;;;5021346;28;20259;-72
2022/08/31 10:47:40;;;;;;;12.10;7.70;;;22.30;99.90;;;;;;5019569;28;20210;-71
2022/08/31 10:50:09;;;;;;;12.23;9.20;;;22.50;99.90;;;;;;5020287;28;20200;-71
2022/08/31 10:53:14;;;;;;;16.88;11.38;;;22.50;99.90;;;;;;5016850;28;20602;-72
2022/08/31 10:56:01;;;;;;;14.80;10.02;;;22.70;99.90;;;;;;5009860;28;20221;-71
2022/08/31 10:58:30;;;;;;;11.05;8.18;;;22.80;99.90;;;;;;5014074;28;20199;-72
2022/08/31 11:01:25;;;;;;;12.10;7.95;;;23.00;99.90;;;;;;5017031;28;20253;-72
2022/08/31 11:04:20;;;;;;;10.35;8.13;;;23.30;99.90;;;;;;5019426;28;20679;-69
2022/08/31 11:06:56;;;;;;;13.20;8.32;;;23.50;99.90;;;;;;5012672;28;20470;-70
2022/08/31 11:09:31;;;;;;;11.88;8.05;;;23.40;99.90;;;;;;5021809;28;20191;-70
2022/08/31 11:12:07;;;;;;;13.23;8.45;;;23.50;99.90;;;;;;5011813;28;20223;-70
2022/08/31 11:14:59;;;;;;;11.90;8.00;;;23.40;99.90;;;;;;5014566;28;20671;-70
2022/08/31 11:17:44;;;;;;;13.48;8.85;;;23.40;99.90;;;;;;5017875;28;20219;-70
2022/08/31 11:20:29;;;;;;;9.50;7.25;;;23.50;99.90;;;;;;5014095;28;20595;-70
2022/08/31 11:23:14;;;;;;;10.80;8.32;;;23.40;99.90;;;;;;5018378;28;20234;-73
2022/08/31 11:25:46;;;;;;;11.07;8.07;;;23.40;99.90;;;;;;5015509;28;20222;-72
2022/08/31 11:28:33;;;;;;;12.52;7.80;;;23.30;99.90;;;;;;5012710;28;20192;-72
2022/08/31 11:31:22;;;;;;;12.95;8.05;;;23.40;99.90;;;;;;5011195;28;20282;-72
2022/08/31 11:33:55;;;;;;;10.35;8.13;;;23.70;99.90;;;;;;5012488;28;20221;-72
2022/08/31 11:36:59;;;;;;;13.07;8.15;;;23.80;99.90;;;;;;5011848;28;20212;-71
2022/08/31 11:39:29;;;;;;;11.85;7.20;;;23.60;99.90;;;;;;5014294;28;20560;-72
2022/08/31 11:41:58;;;;;;;8.10;7.03;;;23.40;99.90;;;;;;5008507;28;20723;-71
2022/08/31 11:44:28;;;;;;;10.38;7.63;;;23.70;99.90;;;;;;5010193;28;20641;-73
2022/08/31 11:47:07;;;;;;;12.15;9.95;;;23.80;99.90;;;;;;5015514;28;20632;-72
2022/08/31 11:49:36;;;;;;;13.82;9.27;;;24.00;99.90;;;;;;5022708;28;20194;-72
2022/08/31 11:52:28;;;;;;;11.85;8.88;;;23.90;99.90;;;;;;5012465;28;20231;-74
2022/08/31 11:55:00;;;;;;;11.77;7.93;;;24.00;99.90;;;;;;5009808;28;20199;-74
2022/08/31 11:57:50;;;;;;;8.90;7.20;;;24.40;99.90;;;;;;5010209;28;20200;-71
2022/08/31 12:00:19;;;;;;;10.63;7.88;;;24.60;99.90;;;;;;5020182;28;20206;-71
2022/08/31 12:03:02;;;;;;;12.02;7.82;;;24.70;99.90;;;;;;5019549;28;20227;-74
2022/08/31 12:05:49;;;;;;;12.43;7.50;;;24.70;99.90;;;;;;5009499;28;20208;-72
2022/08/31 12:08:17;;;;;;;9.80;7.85;;;24.70;99.90;;;;;;5013067;28;20195;-72
2022/08/31 12:10:49;;;;;;;10.30;7.10;;;24.50;99.90;;;;;;5011747;28;20204;-72
2022/08/31 12:13:36;;;;;;;11.35;7.75;;;24.50;99.90;;;;;;5017720;28;20227;-71
2022/08/31 12:16:35;;;;;;;11.52;6.95;;;24.60;99.90;;;;;;5014722;28;20203;-73
2022/08/31 12:25:22;;;;;;;9.30;6.70;;;24.90;99.90;;;;;;5015315;28;20222;-70
2022/08/31 12:27:51;;;;;;;10.02;5.85;;;25.20;99.90;;;;;;5010334;28;20206;-71
2022/08/31 12:30:26;;;;;;;8.85;6.00;;;25.20;99.90;;;;;;5017474;28;20187;-71
2022/08/31 12:33:11;;;;;;;6.43;5.50;;;25.20;99.90;;;;;;5017032;28;20223;-70
2022/08/31 12:35:38;;;;;;;10.70;6.05;;;25.50;99.90;;;;;;5008747;28;20702;-70
2022/08/31 12:38:09;;;;;;;7.20;5.45;;;25.70;99.90;;;;;;5012584;28;20196;-70
2022/08/31 12:40:56;;;;;;;7.40;5.50;;;25.50;99.90;;;;;;5011201;28;20211;-70
2022/08/31 12:43:42;;;;;;;6.05;4.68;;;25.10;99.90;;;;;;5015942;28;20219;-72
2022/08/31 12:46:21;;;;;;;5.47;4.30;;;24.90;99.90;;;;;;5006159;28;20195;-73
2022/08/31 12:48:54;;;;;;;7.28;5.18;;;24.80;99.90;;;;;;5018877;28;20210;-72
2022/08/31 12:51:42;;;;;;;4.93;4.13;;;25.00;99.90;;;;;;5013852;28;20212;-75
2022/08/31 12:54:23;;;;;;;5.55;4.93;;;25.30;99.90;;;;;;5009862;28;20216;-71
2022/08/31 12:57:19;;;;;;;5.85;4.43;;;25.70;99.90;;;;;;5019777;28;20214;-70
2022/08/31 13:00:18;;;;;;;4.40;3.83;;;25.90;99.90;;;;;;5014830;28;20548;-70
2022/08/31 13:02:50;;;;;;;5.18;3.95;;;25.80;99.90;;;;;;5019149;28;20231;-70
2022/08/31 13:05:33;;;;;;;5.35;4.10;;;25.70;99.90;;;;;;5018847;28;20188;-69
2022/08/31 13:08:17;;;;;;;5.35;4.65;;;25.50;99.90;;;;;;5021137;28;20210;-70
2022/08/31 13:10:43;;;;;;;5.93;4.05;;;25.40;99.90;;;;;;5010423;28;20204;-70
2022/08/31 13:13:23;;;;;;;4.85;4.00;;;25.40;99.90;;;;;;5023186;28;20219;-70
2022/08/31 13:15:56;;;;;;;5.63;4.03;;;25.50;99.90;;;;;;5009970;28;20247;-70
2022/08/31 13:18:27;;;;;;;5.82;3.88;;;25.50;99.90;;;;;;5014293;28;20287;-70
2022/08/31 13:20:55;;;;;;;5.65;4.07;;;25.20;99.90;;;;;;5018383;28;20631;-70
2022/08/31 13:23:41;;;;;;;6.97;4.40;;;25.10;99.90;;;;;;5012009;28;20700;-70
2022/08/31 13:26:21;;;;;;;5.07;4.10;;;25.00;99.90;;;;;;5013654;28;20204;-70
2022/08/31 13:28:55;;;;;;;7.95;4.22;;;25.10;99.90;;;;;;5010667;28;20904;-70
2022/08/31 13:31:25;;;;;;;6.15;3.75;;;25.30;99.90;;;;;;5016856;28;20200;-70